CheckWX is a tool to help pilots better visualize weather data.  It is not intended as a substitute for an official pre-flight weather briefing.

19:29:41 UTC

KTYQ METAR
Indianapolis Executive Airport
Indianapolis, Indiana, USA
Current

15 mins ago

KTYQ 191915Z AUTO 16004KT 10SM SCT035 SCT049 SCT055 27/20 A2970 RMK AO2 T02660195
Observed
Jun-19 @ 19:15 UTC
Wind
  • 160° at 4 KTS
Visibility
10 SM
Flight Rules
VFR
Cloud Levels
  • Scattered at 3,500' AGL
  • Scattered at 4,900' AGL
  • Scattered at 5,500' AGL
Temperature
27°C / 81°F
Dewpoint
20°C / 68°F
Heat Index
29°C / 84°F
Humidity
66%
Altimeter
29.7" Hg
Pressure
1005.72 hPa
Previous

35 mins ago

KTYQ 191855Z AUTO 25004KT 10SM CLR 27/20 A2971 RMK AO2 T02680204
Observed
Jun-19 @ 18:55 UTC
Wind
  • 250° at 4 KTS
Visibility
10 SM
Flight Rules
VFR
Cloud Levels
  • Clear skies
Temperature
27°C / 81°F
Dewpoint
20°C / 68°F
Heat Index
29°C / 84°F
Humidity
66%
Altimeter
29.71" Hg
Pressure
1006.12 hPa
Previous

55 mins ago

KTYQ 191835Z AUTO 18004KT 10SM SCT110 26/20 A2971 RMK AO2 T02630201
Observed
Jun-19 @ 18:35 UTC
Wind
  • 180° at 4 KTS
Visibility
10 SM
Flight Rules
VFR
Cloud Levels
  • Scattered at 11,000' AGL
Temperature
26°C / 79°F
Dewpoint
20°C / 68°F
Humidity
70%
Altimeter
29.71" Hg
Pressure
1006.12 hPa